Time;durP1;ratioP1;P1;durP2;ratioP2;P2;SDS_P1;SDS_P2;PMS_P1;PMS_P2;Temp;Humidity;BMP_temperature;BMP_pressure;BME280_temperature;BME280_humidity;BME280_pressure;Samples;Min_cycle;Max_cycle;Signal;HPM_P1;HPM_P2
2021/07/01 00:00:55;;;;;;;17.73;16.03;;;18.60;99.90;;;;;;5037603;28;20454;-90
2021/07/01 00:03:20;;;;;;;17.63;16.00;;;18.60;99.90;;;;;;5037808;28;20424;-90
2021/07/01 00:05:46;;;;;;;18.27;16.37;;;18.50;99.90;;;;;;5037417;28;20220;-89
2021/07/01 00:08:12;;;;;;;18.27;16.40;;;18.60;99.90;;;;;;5040845;28;20212;-90
2021/07/01 00:10:38;;;;;;;16.57;14.83;;;18.60;99.90;;;;;;5035862;28;20221;-90
2021/07/01 00:13:04;;;;;;;16.50;14.90;;;18.60;99.90;;;;;;5017669;28;20454;-89
2021/07/01 00:15:32;;;;;;;15.13;13.63;;;18.50;99.90;;;;;;5035649;28;20508;-90
2021/07/01 00:17:58;;;;;;;17.00;15.23;;;18.50;99.90;;;;;;5039150;28;20773;-90
2021/07/01 00:20:24;;;;;;;15.43;13.93;;;18.50;99.90;;;;;;5054212;28;20443;-90
2021/07/01 00:22:52;;;;;;;14.37;12.97;;;18.50;99.90;;;;;;5054990;28;20408;-90
2021/07/01 00:25:19;;;;;;;15.10;13.80;;;18.50;99.90;;;;;;5037410;28;20477;-90
2021/07/01 00:27:45;;;;;;;15.07;13.67;;;18.50;99.90;;;;;;5055159;28;20420;-86
2021/07/01 00:30:13;;;;;;;14.60;13.20;;;18.50;99.90;;;;;;5056002;28;20487;-90
2021/07/01 00:32:39;;;;;;;14.87;13.03;;;18.50;99.90;;;;;;5055956;28;20420;-90
2021/07/01 00:35:07;;;;;;;14.47;13.10;;;18.50;99.90;;;;;;5055348;28;20431;-90
2021/07/01 00:37:33;;;;;;;14.07;12.57;;;18.50;99.90;;;;;;5055612;28;20766;-90
2021/07/01 00:40:00;;;;;;;13.57;12.17;;;18.50;99.90;;;;;;5055256;28;20761;-89
2021/07/01 00:42:26;;;;;;;13.07;11.77;;;18.50;99.90;;;;;;5056130;28;20764;-90
2021/07/01 00:44:52;;;;;;;13.30;12.00;;;18.50;99.90;;;;;;5054937;28;20551;-90
2021/07/01 00:47:17;;;;;;;13.50;12.30;;;18.50;99.90;;;;;;5055643;28;20524;-90
2021/07/01 00:49:43;;;;;;;12.00;10.93;;;18.50;99.90;;;;;;5053904;28;20220;-89
2021/07/01 00:52:12;;;;;;;11.67;10.57;;;18.50;99.90;;;;;;5055307;28;20177;-90
2021/07/01 00:54:39;;;;;;;11.93;10.83;;;18.50;99.90;;;;;;5055276;28;20416;-90
2021/07/01 00:57:11;;;;;;;12.00;10.90;;;18.50;99.90;;;;;;5054934;28;20901;-90
2021/07/01 00:59:38;;;;;;;11.77;10.57;;;18.50;99.90;;;;;;5054273;28;20427;-90
2021/07/01 01:02:05;;;;;;;11.60;10.50;;;18.50;99.90;;;;;;5052260;28;20456;-86
2021/07/01 01:04:31;;;;;;;12.73;11.60;;;18.50;99.90;;;;;;5017631;28;20417;-87
2021/07/01 01:06:56;;;;;;;11.23;10.27;;;18.40;99.90;;;;;;5016294;28;20420;-89
2021/07/01 01:09:22;;;;;;;12.47;11.17;;;18.40;99.90;;;;;;5034132;28;20187;-89
2021/07/01 01:11:48;;;;;;;11.73;10.57;;;18.40;99.90;;;;;;5016445;28;20178;-87
2021/07/01 01:14:14;;;;;;;13.13;11.93;;;18.40;99.90;;;;;;5035993;28;20189;-89
2021/07/01 01:16:40;;;;;;;11.73;10.63;;;18.40;99.90;;;;;;5054823;28;20209;-89
2021/07/01 01:19:06;;;;;;;13.00;11.80;;;18.40;99.90;;;;;;5053939;28;20166;-89
2021/07/01 01:21:32;;;;;;;14.17;12.87;;;18.40;99.90;;;;;;5054626;28;20419;-89
2021/07/01 01:24:00;;;;;;;13.73;12.33;;;18.30;99.90;;;;;;5035667;28;20424;-88
2021/07/01 01:26:26;;;;;;;13.70;12.40;;;18.30;99.90;;;;;;5036732;28;20639;-89
2021/07/01 01:28:53;;;;;;;12.67;11.57;;;18.30;99.90;;;;;;5034221;28;20763;-88
2021/07/01 01:31:20;;;;;;;12.50;11.30;;;18.30;99.90;;;;;;5054568;28;20885;-89
2021/07/01 01:33:46;;;;;;;12.23;11.07;;;18.40;99.90;;;;;;5054452;28;20818;-87
2021/07/01 01:36:13;;;;;;;12.77;11.67;;;18.40;99.90;;;;;;5052808;28;20416;-89
2021/07/01 01:38:38;;;;;;;13.13;11.93;;;18.40;99.90;;;;;;5054259;28;20417;-89
2021/07/01 01:41:04;;;;;;;14.40;12.90;;;18.40;99.90;;;;;;5052580;28;20432;-89
2021/07/01 01:43:30;;;;;;;13.97;12.57;;;18.40;99.90;;;;;;5024959;28;20170;-89
2021/07/01 01:45:55;;;;;;;13.80;12.47;;;18.30;99.90;;;;;;5033172;28;20218;-88
2021/07/01 01:48:22;;;;;;;12.33;11.17;;;18.30;99.90;;;;;;5033890;28;20197;-89
2021/07/01 01:50:48;;;;;;;13.07;11.70;;;18.30;99.90;;;;;;5033852;28;20232;-87
2021/07/01 01:53:14;;;;;;;14.50;12.37;;;18.40;99.90;;;;;;5033878;28;20413;-88
2021/07/01 01:55:40;;;;;;;13.97;12.57;;;18.40;99.90;;;;;;5034100;28;20417;-89
2021/07/01 01:58:06;;;;;;;14.83;13.17;;;18.30;99.90;;;;;;5039656;28;20572;-88
2021/07/01 02:00:34;;;;;;;14.20;12.70;;;18.30;99.90;;;;;;5053067;28;20785;-89
2021/07/01 02:03:00;;;;;;;15.13;13.40;;;18.30;99.90;;;;;;5035351;28;20401;-88
2021/07/01 02:05:26;;;;;;;16.53;14.80;;;18.30;99.90;;;;;;5053769;28;20431;-89
2021/07/01 02:07:52;;;;;;;18.53;16.57;;;18.30;99.90;;;;;;5034510;28;20420;-87
2021/07/01 02:10:24;;;;;;;16.90;15.13;;;18.30;99.90;;;;;;5035744;28;20533;-88
2021/07/01 02:12:50;;;;;;;17.30;15.60;;;18.30;99.90;;;;;;5053436;28;20408;-87
2021/07/01 02:15:20;;;;;;;16.47;14.70;;;18.30;99.90;;;;;;5035536;28;20412;-88
2021/07/01 02:17:46;;;;;;;17.13;15.27;;;18.30;99.90;;;;;;5053526;28;20907;-89
2021/07/01 02:20:14;;;;;;;17.30;15.50;;;18.30;99.90;;;;;;5051769;28;20481;-88
2021/07/01 02:22:41;;;;;;;17.07;14.67;;;18.30;99.90;;;;;;5032540;28;20266;-88
2021/07/01 02:25:08;;;;;;;16.57;14.97;;;18.30;99.90;;;;;;5032653;28;20831;-87
2021/07/01 02:27:35;;;;;;;17.97;15.97;;;18.30;99.90;;;;;;5033516;28;20507;-88
2021/07/01 02:30:02;;;;;;;18.07;14.50;;;18.30;99.90;;;;;;5032478;28;20502;-88
2021/07/01 02:32:27;;;;;;;18.10;16.20;;;18.20;99.90;;;;;;5033662;28;20912;-88
2021/07/01 02:34:53;;;;;;;18.20;16.30;;;18.20;99.90;;;;;;5014707;28;20421;-87
2021/07/01 02:37:19;;;;;;;17.93;15.23;;;18.30;99.90;;;;;;5015575;28;20187;-88
2021/07/01 02:39:46;;;;;;;19.30;14.60;;;18.30;99.90;;;;;;5051244;28;20173;-88
2021/07/01 02:42:12;;;;;;;16.30;14.70;;;18.30;99.90;;;;;;5052274;28;20420;-88
2021/07/01 02:44:38;;;;;;;18.40;15.70;;;18.30;99.90;;;;;;5052609;28;20908;-88
2021/07/01 02:47:04;;;;;;;15.10;13.50;;;18.30;99.90;;;;;;5052256;28;20408;-88
2021/07/01 02:49:29;;;;;;;16.40;14.70;;;18.30;99.90;;;;;;5035070;28;20176;-88
2021/07/01 02:51:55;;;;;;;17.73;15.10;;;18.30;99.90;;;;;;5052092;28;20491;-87
2021/07/01 02:54:21;;;;;;;17.80;15.50;;;18.30;99.90;;;;;;5038688;28;20186;-88
2021/07/01 02:56:48;;;;;;;15.80;14.10;;;18.20;99.90;;;;;;5032925;28;20189;-88
2021/07/01 02:59:15;;;;;;;16.73;14.57;;;18.20;99.90;;;;;;5032475;28;21092;-89
2021/07/01 03:01:42;;;;;;;16.33;14.60;;;18.20;99.90;;;;;;5015788;28;20413;-89
2021/07/01 03:04:09;;;;;;;16.70;15.10;;;18.20;99.90;;;;;;5041969;28;20438;-89
2021/07/01 03:06:34;;;;;;;16.10;14.40;;;18.10;99.90;;;;;;5043655;28;20441;-83
2021/07/01 03:09:01;;;;;;;15.70;14.10;;;18.10;99.90;;;;;;5032894;28;20463;-84
2021/07/01 03:11:27;;;;;;;14.77;13.17;;;18.10;99.90;;;;;;5032561;28;20324;-82
2021/07/01 03:13:53;;;;;;;14.87;13.37;;;18.10;99.90;;;;;;5032001;28;20432;-85
2021/07/01 03:16:20;;;;;;;14.70;13.30;;;18.20;99.90;;;;;;5032246;28;20504;-83
2021/07/01 03:18:50;;;;;;;14.37;12.93;;;18.10;99.90;;;;;;5032456;28;20417;-83
2021/07/01 03:21:17;;;;;;;14.37;13.00;;;18.10;99.90;;;;;;5031693;28;20416;-83
2021/07/01 03:23:44;;;;;;;14.53;12.30;;;18.10;99.90;;;;;;5032186;28;20409;-83
2021/07/01 03:26:13;;;;;;;12.63;11.53;;;18.10;99.90;;;;;;5031611;28;20401;-82
2021/07/01 03:28:39;;;;;;;12.80;11.57;;;18.10;99.90;;;;;;5014620;28;20425;-83
2021/07/01 03:31:05;;;;;;;13.23;11.80;;;18.10;99.90;;;;;;5031293;28;20974;-83
2021/07/01 03:33:31;;;;;;;13.10;11.90;;;18.10;99.90;;;;;;5048034;28;20424;-90
2021/07/01 03:35:57;;;;;;;14.80;13.20;;;18.10;99.90;;;;;;5034294;28;20400;-86
2021/07/01 03:38:23;;;;;;;14.27;12.60;;;18.10;99.90;;;;;;5052302;28;20416;-90
2021/07/01 03:40:49;;;;;;;18.40;12.70;;;18.10;99.90;;;;;;5052832;28;20419;-89
2021/07/01 03:43:15;;;;;;;14.07;12.10;;;18.10;99.90;;;;;;5038010;28;20427;-91
2021/07/01 03:45:40;;;;;;;13.30;12.00;;;18.10;99.90;;;;;;5032451;28;20987;-90
2021/07/01 03:48:07;;;;;;;13.77;12.33;;;18.10;99.90;;;;;;5031442;28;20435;-90
2021/07/01 03:50:33;;;;;;;12.67;11.47;;;18.10;99.90;;;;;;5032191;28;20205;-90
2021/07/01 03:52:58;;;;;;;13.63;12.33;;;18.10;99.90;;;;;;5013695;28;21005;-89
2021/07/01 03:55:24;;;;;;;11.93;10.77;;;18.00;99.90;;;;;;5032255;28;20257;-89
2021/07/01 03:57:50;;;;;;;13.80;12.60;;;18.10;99.90;;;;;;5042532;28;20535;-90
2021/07/01 04:00:16;;;;;;;13.20;11.80;;;18.00;99.90;;;;;;5051280;28;20221;-90
2021/07/01 04:02:42;;;;;;;13.80;12.50;;;18.00;99.90;;;;;;5034459;28;20177;-90
2021/07/01 04:05:08;;;;;;;12.37;11.20;;;18.00;99.90;;;;;;5033449;28;20412;-90
2021/07/01 04:07:34;;;;;;;16.43;12.43;;;18.00;99.90;;;;;;5052259;28;20408;-90
2021/07/01 04:10:06;;;;;;;14.23;12.80;;;18.00;99.90;;;;;;5033412;28;20464;-89
2021/07/01 04:12:33;;;;;;;12.50;11.30;;;18.00;99.90;;;;;;5051439;28;20413;-90
2021/07/01 04:14:58;;;;;;;13.10;11.80;;;18.00;99.90;;;;;;5050912;28;20774;-87
2021/07/01 04:17:24;;;;;;;12.93;11.73;;;18.00;99.90;;;;;;5034082;28;20420;-90
2021/07/01 04:19:50;;;;;;;13.93;12.53;;;18.00;99.90;;;;;;5052264;28;20232;-90
2021/07/01 04:22:16;;;;;;;12.70;11.50;;;18.00;99.90;;;;;;5051300;28;20177;-90
2021/07/01 04:24:41;;;;;;;12.43;11.33;;;18.00;99.90;;;;;;5052711;28;20172;-90
2021/07/01 04:27:07;;;;;;;13.70;11.63;;;18.00;99.90;;;;;;5051042;28;20614;-90
2021/07/01 04:29:33;;;;;;;12.07;11.00;;;18.00;99.90;;;;;;5052095;28;20181;-90
2021/07/01 04:31:59;;;;;;;10.73;9.23;;;18.00;99.90;;;;;;5052166;28;20225;-86
2021/07/01 04:34:25;;;;;;;11.10;10.20;;;18.00;99.90;;;;;;5052208;28;20176;-91
2021/07/01 04:36:51;;;;;;;11.60;10.60;;;18.00;99.90;;;;;;5052360;28;20186;-91
2021/07/01 04:39:17;;;;;;;10.80;9.83;;;18.00;99.90;;;;;;5051241;28;20420;-92
2021/07/01 04:41:43;;;;;;;9.77;8.80;;;18.00;99.90;;;;;;5052893;28;20416;-91
2021/07/01 04:44:08;;;;;;;10.50;9.60;;;18.00;99.90;;;;;;5035825;28;20185;-91
2021/07/01 04:46:34;;;;;;;9.93;9.13;;;18.00;99.90;;;;;;5070225;28;20234;-90
2021/07/01 04:49:00;;;;;;;9.20;8.40;;;18.00;99.90;;;;;;5037021;28;20170;-86
2021/07/01 04:51:27;;;;;;;10.40;9.40;;;18.00;99.90;;;;;;5054264;28;20460;-89
2021/07/01 04:53:53;;;;;;;10.60;9.60;;;18.00;99.90;;;;;;5055195;28;20470;-89
2021/07/01 04:56:19;;;;;;;10.47;9.60;;;17.90;99.90;;;;;;5054289;28;20435;-88
2021/07/01 04:58:44;;;;;;;10.53;9.63;;;17.90;99.90;;;;;;5037480;28;20829;-90
2021/07/01 05:01:10;;;;;;;10.40;9.57;;;17.90;99.90;;;;;;5054045;28;20178;-89
2021/07/01 05:03:36;;;;;;;10.00;9.10;;;17.90;99.90;;;;;;5037198;28;20200;-90
2021/07/01 05:06:02;;;;;;;10.10;9.30;;;17.90;99.90;;;;;;5053917;28;20216;-87
2021/07/01 05:08:28;;;;;;;11.07;10.07;;;17.90;99.90;;;;;;5056795;28;20540;-89
2021/07/01 05:10:54;;;;;;;12.93;11.73;;;18.00;99.90;;;;;;5074209;28;20463;-89
2021/07/01 05:13:20;;;;;;;14.33;13.03;;;18.00;99.90;;;;;;5074264;28;20169;-89
2021/07/01 05:15:45;;;;;;;15.20;13.60;;;18.00;99.90;;;;;;5075246;28;20173;-89
2021/07/01 05:18:11;;;;;;;16.07;14.60;;;18.00;99.90;;;;;;5073978;28;20656;-89
2021/07/01 05:20:45;;;;;;;17.17;15.43;;;18.00;99.90;;;;;;5073676;28;20177;-90
2021/07/01 05:23:11;;;;;;;17.40;15.70;;;18.00;99.90;;;;;;5074397;28;20524;-90
2021/07/01 05:25:36;;;;;;;16.23;14.73;;;18.00;99.90;;;;;;5060976;28;20557;-90
2021/07/01 05:28:10;;;;;;;14.10;12.80;;;18.00;99.90;;;;;;5072237;28;20231;-85
2021/07/01 05:30:37;;;;;;;15.80;14.10;;;18.00;99.90;;;;;;5063909;28;20211;-89
2021/07/01 05:33:03;;;;;;;14.47;13.27;;;18.00;99.90;;;;;;5074795;28;20550;-85
2021/07/01 05:35:29;;;;;;;15.73;14.33;;;18.00;99.90;;;;;;5074946;28;20438;-89
2021/07/01 05:37:55;;;;;;;13.87;12.57;;;17.90;99.90;;;;;;5074496;28;20403;-89
2021/07/01 05:40:21;;;;;;;14.57;13.10;;;17.90;99.90;;;;;;5074171;28;20177;-89
2021/07/01 05:42:48;;;;;;;14.80;13.40;;;17.90;99.90;;;;;;5074346;28;20563;-90
2021/07/01 05:45:14;;;;;;;12.90;11.70;;;17.90;99.90;;;;;;5042499;28;20979;-81
2021/07/01 05:47:41;;;;;;;14.00;12.90;;;17.90;99.90;;;;;;5055182;28;20510;-81
2021/07/01 05:50:09;;;;;;;11.70;10.70;;;17.80;99.90;;;;;;5064462;28;20579;-82
2021/07/01 05:52:38;;;;;;;12.73;11.60;;;17.80;99.90;;;;;;5053871;28;20432;-81
2021/07/01 05:55:05;;;;;;;13.27;10.30;;;17.70;99.90;;;;;;5052797;28;20443;-86
2021/07/01 05:57:32;;;;;;;11.10;9.90;;;17.70;99.90;;;;;;5053789;28;20442;-81
2021/07/01 05:59:59;;;;;;;12.17;10.97;;;17.70;99.90;;;;;;5054056;28;20973;-81
2021/07/01 06:02:25;;;;;;;11.73;10.57;;;17.60;99.90;;;;;;5053103;28;21023;-81
2021/07/01 06:04:51;;;;;;;12.83;11.70;;;17.60;99.90;;;;;;5054093;28;20420;-81
2021/07/01 06:07:21;;;;;;;11.13;10.03;;;17.60;99.90;;;;;;5053486;28;20412;-81
2021/07/01 06:09:51;;;;;;;11.07;9.97;;;17.50;99.90;;;;;;5054271;28;20172;-81
2021/07/01 06:12:17;;;;;;;13.53;12.43;;;17.60;99.90;;;;;;5053408;28;20408;-81
2021/07/01 06:14:44;;;;;;;11.20;10.20;;;17.60;99.90;;;;;;5019566;28;20774;-81
2021/07/01 06:17:11;;;;;;;12.37;10.90;;;17.60;99.90;;;;;;5053361;28;20444;-81
2021/07/01 06:19:37;;;;;;;12.20;11.00;;;17.70;99.90;;;;;;5053996;28;20438;-81
2021/07/01 06:22:04;;;;;;;12.67;11.57;;;17.70;99.90;;;;;;5053281;28;20404;-82
2021/07/01 06:24:30;;;;;;;11.87;10.67;;;17.70;99.90;;;;;;5053785;28;20542;-81
2021/07/01 06:27:00;;;;;;;13.70;12.47;;;17.80;99.90;;;;;;5053776;28;20416;-78
2021/07/01 06:29:27;;;;;;;12.63;11.43;;;17.80;99.90;;;;;;5053078;28;20436;-84
2021/07/01 06:31:53;;;;;;;14.67;13.30;;;17.80;99.90;;;;;;5053618;28;20550;-80
2021/07/01 06:34:18;;;;;;;13.50;11.83;;;17.80;99.90;;;;;;5052962;28;20995;-80
2021/07/01 06:36:47;;;;;;;12.87;11.73;;;17.90;99.90;;;;;;5053126;28;20174;-80
2021/07/01 06:39:13;;;;;;;12.73;11.60;;;17.90;99.90;;;;;;5034939;28;20173;-77
2021/07/01 06:41:43;;;;;;;13.87;12.30;;;18.00;99.90;;;;;;5053664;28;20405;-78
2021/07/01 06:44:11;;;;;;;15.27;13.77;;;18.00;99.90;;;;;;5052817;28;20912;-78
2021/07/01 06:46:37;;;;;;;14.77;13.47;;;18.10;99.90;;;;;;5053745;28;20480;-77
2021/07/01 06:49:04;;;;;;;12.50;11.30;;;18.10;99.90;;;;;;5053305;28;20892;-77
2021/07/01 06:51:40;;;;;;;15.50;12.33;;;18.00;99.90;;;;;;5053085;28;20557;-77
2021/07/01 06:54:12;;;;;;;14.20;12.73;;;18.00;99.90;;;;;;5052540;28;20408;-79
2021/07/01 06:56:40;;;;;;;14.87;13.50;;;18.00;99.90;;;;;;5053329;28;20380;-76
2021/07/01 06:59:09;;;;;;;14.70;13.50;;;18.10;99.90;;;;;;5052556;28;20408;-80
2021/07/01 07:01:36;;;;;;;19.30;12.30;;;18.00;99.90;;;;;;5053027;28;20416;-79
2021/07/01 07:04:01;;;;;;;18.73;13.00;;;18.00;99.90;;;;;;5052764;28;20979;-78
2021/07/01 07:06:28;;;;;;;17.17;14.43;;;17.90;99.90;;;;;;5051994;28;20495;-79
2021/07/01 07:08:54;;;;;;;19.83;16.63;;;17.90;99.90;;;;;;5053056;28;20648;-80
2021/07/01 07:11:21;;;;;;;18.87;15.10;;;17.80;99.90;;;;;;5052324;28;20806;-79
2021/07/01 07:13:47;;;;;;;16.50;14.90;;;17.90;99.90;;;;;;5052863;28;20413;-82
2021/07/01 07:16:13;;;;;;;19.00;16.17;;;18.00;99.90;;;;;;5052450;28;20419;-81
2021/07/01 07:18:42;;;;;;;21.30;18.80;;;17.90;99.90;;;;;;5052890;28;20447;-80
2021/07/01 07:21:19;;;;;;;19.43;17.43;;;17.90;99.90;;;;;;5051905;28;20751;-82
2021/07/01 07:23:53;;;;;;;18.53;16.63;;;17.70;99.90;;;;;;5052960;28;20488;-81
2021/07/01 07:26:22;;;;;;;18.90;16.83;;;17.70;99.90;;;;;;5052337;28;20396;-81
2021/07/01 07:28:55;;;;;;;18.07;15.17;;;17.60;99.90;;;;;;5034940;28;20424;-81
2021/07/01 07:31:31;;;;;;;20.60;14.53;;;17.60;99.90;;;;;;5052073;28;20951;-81
2021/07/01 07:33:59;;;;;;;15.70;12.80;;;17.60;99.90;;;;;;5052672;28;20403;-80
2021/07/01 07:36:26;;;;;;;15.87;14.37;;;17.60;99.90;;;;;;5051972;28;20411;-81
2021/07/01 07:38:54;;;;;;;15.60;12.47;;;17.70;99.90;;;;;;5052613;28;20410;-79
2021/07/01 07:41:20;;;;;;;14.57;13.17;;;17.60;99.90;;;;;;5051972;28;20405;-81
2021/07/01 07:43:48;;;;;;;14.07;12.70;;;17.60;99.90;;;;;;5052594;28;20449;-81
2021/07/01 07:46:18;;;;;;;14.33;12.83;;;17.70;99.90;;;;;;5051275;28;20456;-81
2021/07/01 07:48:44;;;;;;;13.50;12.13;;;17.70;99.90;;;;;;5034798;28;20407;-81
2021/07/01 07:51:16;;;;;;;12.43;11.30;;;17.70;99.90;;;;;;5051561;28;20935;-81
2021/07/01 07:53:47;;;;;;;14.77;12.47;;;17.70;99.90;;;;;;5052491;28;20480;-81
2021/07/01 07:56:15;;;;;;;14.80;13.50;;;17.60;99.90;;;;;;5051856;28;20387;-82
2021/07/01 07:58:48;;;;;;;14.87;13.47;;;17.60;99.90;;;;;;5052387;28;20457;-81
2021/07/01 08:01:15;;;;;;;18.00;13.70;;;17.60;99.90;;;;;;5051837;28;20416;-81
2021/07/01 08:03:42;;;;;;;15.10;13.47;;;17.60;99.90;;;;;;5052512;28;20743;-81
2021/07/01 08:06:10;;;;;;;17.10;14.80;;;17.60;99.90;;;;;;5052283;28;20884;-82
2021/07/01 08:08:37;;;;;;;18.30;16.70;;;17.70;99.90;;;;;;5034453;28;20404;-81
2021/07/01 08:11:07;;;;;;;15.30;13.57;;;17.70;99.90;;;;;;5034060;28;20491;-81
2021/07/01 08:13:34;;;;;;;17.47;15.57;;;17.70;99.90;;;;;;5051644;28;20400;-81
2021/07/01 08:16:00;;;;;;;16.03;14.50;;;17.70;99.90;;;;;;5052396;28;20891;-81
2021/07/01 08:18:40;;;;;;;14.23;12.83;;;17.70;99.90;;;;;;5052606;28;20415;-81
2021/07/01 08:21:08;;;;;;;15.83;14.53;;;17.70;99.90;;;;;;5056194;28;20174;-81
2021/07/01 08:23:35;;;;;;;15.77;14.33;;;17.80;99.90;;;;;;5055710;28;20411;-79
2021/07/01 08:26:01;;;;;;;12.37;11.10;;;17.80;99.90;;;;;;5056042;28;20499;-80
2021/07/01 08:28:28;;;;;;;12.93;11.33;;;17.90;99.90;;;;;;5055255;28;20404;-80
2021/07/01 08:31:05;;;;;;;13.37;12.07;;;18.10;99.90;;;;;;5055609;28;20459;-80
2021/07/01 08:33:37;;;;;;;13.23;11.80;;;18.30;99.90;;;;;;5055381;28;20400;-80
2021/07/01 08:36:04;;;;;;;13.20;11.80;;;18.50;99.90;;;;;;5055914;28;20416;-80
2021/07/01 08:38:37;;;;;;;13.37;12.07;;;18.70;99.90;;;;;;5055057;28;20469;-80
2021/07/01 08:41:14;;;;;;;14.53;13.03;;;18.80;99.90;;;;;;5055333;28;20408;-80
2021/07/01 08:43:54;;;;;;;13.43;11.87;;;18.90;99.90;;;;;;5055532;28;20404;-81
2021/07/01 08:46:29;;;;;;;13.23;11.83;;;18.80;99.90;;;;;;5054882;28;20491;-81
2021/07/01 08:49:00;;;;;;;16.00;14.37;;;18.90;99.90;;;;;;5055623;28;20567;-81
2021/07/01 08:51:37;;;;;;;15.17;12.47;;;19.00;99.90;;;;;;5054938;28;20463;-80
2021/07/01 08:54:23;;;;;;;16.87;15.37;;;19.20;99.90;;;;;;5055993;28;20754;-80
2021/07/01 08:56:51;;;;;;;16.00;14.70;;;19.20;99.90;;;;;;5055758;28;20756;-80
2021/07/01 08:59:22;;;;;;;15.77;12.67;;;19.30;99.90;;;;;;5054902;28;20415;-81
2021/07/01 09:01:56;;;;;;;13.50;12.20;;;19.30;99.90;;;;;;5055481;28;20477;-81
2021/07/01 09:04:25;;;;;;;15.63;14.00;;;19.40;99.90;;;;;;5037070;28;20388;-82
2021/07/01 09:07:02;;;;;;;15.60;14.00;;;19.50;99.90;;;;;;5055356;28;20435;-82
2021/07/01 09:09:34;;;;;;;14.03;12.60;;;19.60;99.90;;;;;;5054676;28;20411;-81
2021/07/01 09:12:05;;;;;;;16.47;14.97;;;19.60;99.90;;;;;;5037374;28;20460;-82
2021/07/01 09:14:32;;;;;;;14.10;12.00;;;19.70;99.90;;;;;;5054577;28;20419;-82
2021/07/01 09:17:02;;;;;;;17.90;16.37;;;19.70;99.90;;;;;;5054881;28;20774;-82
2021/07/01 09:19:28;;;;;;;17.37;15.77;;;19.70;99.90;;;;;;5054748;28;20409;-82
2021/07/01 09:21:54;;;;;;;20.57;15.23;;;19.70;99.90;;;;;;5054980;28;20815;-82
2021/07/01 09:24:21;;;;;;;15.47;14.00;;;19.70;99.90;;;;;;5054377;28;20585;-81
2021/07/01 09:26:49;;;;;;;14.97;13.57;;;19.70;99.90;;;;;;5054956;28;20769;-83
2021/07/01 09:29:16;;;;;;;16.07;14.47;;;19.70;99.90;;;;;;5053871;28;20404;-83
2021/07/01 09:31:43;;;;;;;16.53;15.33;;;19.70;99.90;;;;;;5054729;28;20459;-82
2021/07/01 09:34:10;;;;;;;13.70;12.40;;;19.80;99.90;;;;;;5054738;28;20888;-81
2021/07/01 09:36:36;;;;;;;14.07;12.87;;;19.80;99.90;;;;;;5054267;28;20447;-81
2021/07/01 09:39:03;;;;;;;14.37;12.90;;;19.80;99.70;;;;;;5054744;28;20768;-81
2021/07/01 09:41:30;;;;;;;14.83;13.47;;;19.90;99.90;;;;;;5055558;28;20832;-81
2021/07/01 09:43:56;;;;;;;14.77;13.43;;;19.80;99.90;;;;;;5054586;28;20433;-81
2021/07/01 09:46:27;;;;;;;14.60;13.20;;;19.70;99.90;;;;;;5054213;28;20452;-81
2021/07/01 09:48:58;;;;;;;16.93;15.57;;;19.70;99.90;;;;;;5054593;28;20443;-80
2021/07/01 09:51:27;;;;;;;11.50;10.60;;;19.70;99.90;;;;;;5053927;28;20939;-81
2021/07/01 09:53:53;;;;;;;12.43;11.23;;;19.70;99.70;;;;;;5054360;28;20412;-80
2021/07/01 09:56:38;;;;;;;13.57;12.30;;;19.70;99.90;;;;;;5036128;28;20437;-81
2021/07/01 09:59:13;;;;;;;12.37;11.27;;;19.80;99.90;;;;;;5054372;28;20393;-80
2021/07/01 10:01:39;;;;;;;16.67;15.07;;;19.90;99.90;;;;;;5053683;28;20409;-82
2021/07/01 10:04:07;;;;;;;15.33;14.20;;;20.00;99.90;;;;;;5054205;28;20499;-77
2021/07/01 10:06:33;;;;;;;14.43;13.00;;;19.80;99.90;;;;;;5053654;28;20495;-79
2021/07/01 10:08:59;;;;;;;14.90;13.70;;;19.80;99.90;;;;;;5054252;28;20405;-79
2021/07/01 10:11:37;;;;;;;10.63;9.73;;;19.70;99.90;;;;;;5053380;28;20452;-79
2021/07/01 10:14:06;;;;;;;13.07;11.97;;;19.70;99.90;;;;;;5053739;28;20400;-79
2021/07/01 10:16:34;;;;;;;14.97;13.70;;;19.60;99.90;;;;;;5053344;28;20413;-79
2021/07/01 10:19:02;;;;;;;11.10;10.20;;;19.50;99.90;;;;;;5053872;28;20429;-78
2021/07/01 10:21:29;;;;;;;11.60;10.50;;;19.60;99.90;;;;;;5053315;28;20396;-78
2021/07/01 10:24:14;;;;;;;13.70;12.70;;;19.70;99.90;;;;;;5053864;28;20505;-78
2021/07/01 10:26:45;;;;;;;10.90;10.00;;;19.70;99.90;;;;;;5053268;28;20446;-79
2021/07/01 10:29:12;;;;;;;13.23;12.33;;;19.80;99.90;;;;;;5053728;28;20769;-79
2021/07/01 10:31:56;;;;;;;13.30;12.27;;;19.80;99.90;;;;;;5053084;28;20530;-79
2021/07/01 10:34:28;;;;;;;11.40;10.50;;;20.00;99.90;;;;;;5053091;28;20751;-79
2021/07/01 10:37:11;;;;;;;12.53;11.27;;;20.00;99.50;;;;;;5053677;28;20407;-79
2021/07/01 10:39:39;;;;;;;14.20;13.00;;;20.10;98.70;;;;;;5053125;28;20941;-79
2021/07/01 10:42:05;;;;;;;14.23;12.93;;;20.10;99.00;;;;;;5052464;28;20420;-79
2021/07/01 10:44:31;;;;;;;14.60;13.10;;;20.20;98.80;;;;;;5052563;28;20741;-79
2021/07/01 10:46:57;;;;;;;17.07;15.63;;;20.40;98.40;;;;;;5053499;28;20439;-79
2021/07/01 10:49:36;;;;;;;17.67;15.97;;;20.30;98.30;;;;;;5052732;28;20405;-80
2021/07/01 10:52:06;;;;;;;16.50;15.00;;;20.30;98.30;;;;;;5035576;28;20213;-79
2021/07/01 10:54:31;;;;;;;17.30;15.70;;;20.30;98.60;;;;;;5052688;28;20737;-86
2021/07/01 10:57:06;;;;;;;14.50;13.30;;;20.30;99.00;;;;;;5053046;28;20411;-79
2021/07/01 10:59:52;;;;;;;16.93;15.53;;;20.10;98.50;;;;;;5052254;28;20177;-79
2021/07/01 11:02:33;;;;;;;15.63;14.23;;;20.10;98.70;;;;;;5052952;28;20797;-79
2021/07/01 11:05:02;;;;;;;14.00;12.77;;;20.10;98.70;;;;;;5053183;28;20415;-79
2021/07/01 11:07:43;;;;;;;15.20;13.77;;;20.10;98.70;;;;;;5052339;28;20505;-79
2021/07/01 11:10:10;;;;;;;14.40;13.10;;;20.20;98.40;;;;;;5052653;28;20512;-79
2021/07/01 11:12:56;;;;;;;14.47;13.17;;;20.20;98.40;;;;;;5051846;28;20458;-79
2021/07/01 11:15:21;;;;;;;15.10;13.80;;;20.30;98.50;;;;;;5052211;28;20915;-79
2021/07/01 11:17:47;;;;;;;14.70;13.30;;;20.40;98.40;;;;;;5052929;28;20419;-78
2021/07/01 11:20:18;;;;;;;12.50;11.40;;;20.30;98.20;;;;;;5052760;28;20173;-79
2021/07/01 11:22:56;;;;;;;13.90;12.50;;;20.40;98.60;;;;;;5052246;28;20244;-78
2021/07/01 11:25:34;;;;;;;13.60;12.47;;;20.30;98.40;;;;;;5052054;28;20411;-79
2021/07/01 11:28:23;;;;;;;14.53;13.20;;;20.20;98.60;;;;;;5052661;28;20443;-78
2021/07/01 11:30:55;;;;;;;13.90;12.53;;;20.20;98.70;;;;;;5052370;28;20483;-78
2021/07/01 11:33:21;;;;;;;14.60;13.30;;;20.20;98.70;;;;;;5052652;28;20507;-78
2021/07/01 11:36:07;;;;;;;12.57;11.33;;;20.00;99.00;;;;;;5052643;28;20407;-78
2021/07/01 11:38:33;;;;;;;14.33;12.83;;;19.90;99.10;;;;;;5051715;28;20867;-78
2021/07/01 11:41:02;;;;;;;12.97;11.87;;;19.80;99.40;;;;;;5052664;28;20408;-77
2021/07/01 11:43:28;;;;;;;12.83;11.47;;;19.70;99.90;;;;;;5051900;28;20165;-77
2021/07/01 11:45:55;;;;;;;11.90;10.90;;;19.50;99.90;;;;;;5052021;28;20506;-78
2021/07/01 11:48:23;;;;;;;11.23;10.27;;;19.50;99.90;;;;;;5052418;28;20515;-78
2021/07/01 11:50:51;;;;;;;11.43;10.43;;;19.60;99.90;;;;;;5052586;28;20503;-78
2021/07/01 11:53:19;;;;;;;11.53;10.50;;;19.60;99.90;;;;;;5038940;28;20412;-78
2021/07/01 11:55:47;;;;;;;9.47;8.67;;;19.70;99.90;;;;;;5058575;28;20734;-78
2021/07/01 11:58:13;;;;;;;10.03;9.13;;;19.80;99.90;;;;;;5058976;28;20415;-78
2021/07/01 12:00:40;;;;;;;10.50;9.50;;;19.90;99.80;;;;;;5058505;28;20914;-78
2021/07/01 12:03:06;;;;;;;9.47;8.67;;;19.90;99.50;;;;;;5059076;28;20415;-78
2021/07/01 12:05:33;;;;;;;9.23;8.43;;;19.90;99.40;;;;;;5058407;28;20833;-79
2021/07/01 12:08:02;;;;;;;8.87;8.00;;;20.00;99.60;;;;;;5059636;28;20407;-79
2021/07/01 12:10:27;;;;;;;7.67;7.17;;;20.00;99.30;;;;;;5058698;28;20456;-79
2021/07/01 12:12:55;;;;;;;7.57;6.97;;;19.90;99.80;;;;;;5060004;28;20392;-78
2021/07/01 12:15:21;;;;;;;8.20;7.50;;;19.90;99.90;;;;;;5059661;28;20292;-79
2021/07/01 12:18:01;;;;;;;8.10;7.40;;;19.90;99.90;;;;;;5058602;28;20431;-78
2021/07/01 12:20:26;;;;;;;9.30;8.60;;;19.90;99.90;;;;;;5058912;28;20432;-79
2021/07/01 12:22:53;;;;;;;7.77;7.17;;;19.90;99.90;;;;;;5059807;28;20443;-79
2021/07/01 12:25:25;;;;;;;6.80;6.30;;;19.90;99.90;;;;;;5059618;28;20690;-79
2021/07/01 12:28:10;;;;;;;7.40;6.70;;;19.90;99.70;;;;;;5059693;28;20432;-78
2021/07/01 12:31:04;;;;;;;8.10;7.40;;;19.80;99.90;;;;;;5058148;28;20463;-78
2021/07/01 12:33:48;;;;;;;7.77;7.17;;;19.60;99.90;;;;;;5058145;28;20411;-77